Date,TemperatureHighF,TemperatureAvgF,TemperatureLowF,DewpointHighF,DewpointAvgF,DewpointLowF,HumidityHigh,HumidityAvg,HumidityLow,PressureMaxIn,PressureMinIn,WindSpeedMaxMPH,WindSpeedAvgMPH,GustSpeedMaxMPH,PrecipitationSumIn
2013-6-1,97,84,66,66,51,18,80,42,12,30.03,29.91,21,5,21,0.00
2013-6-2,94,80,68,66,59,41,87,55,21,29.94,29.78,38,7,38,0.15
2013-6-3,83,71,59,60,22,1,58,25,10,29.91,29.78,18,4,18,0.07
2013-6-4,70,62,52,45,35,23,69,42,21,30.13,29.86,24,7,24,0.00
2013-6-5,78,63,49,49,35,6,80,46,10,30.20,30.12,18,4,18,0.00
2013-6-6,74,62,53,51,47,36,83,61,30,30.23,30.15,11,4,11,0.00
2013-6-7,58,55,51,51,28,-11,82,46,10,30.16,29.88,14,4,14,0.84
2013-6-8,80,64,52,56,16,-11,76,25,10,30.01,29.63,24,7,24,0.73
2013-6-9,83,69,54,54,34,-9,80,37,10,30.21,30.01,23,4,23,0.00
2013-6-10,71,62,53,55,46,-1,81,60,10,30.25,30.06,12,3,12,0.09
2013-6-11,63,57,54,30,-3,-7,37,5,10,30.07,29.58,27,5,27,0.72
2013-6-12,70,62,56,50,18,-7,65,28,10,29.83,29.54,25,6,25,0.07
2013-6-13,75,61,52,56,38,-7,81,50,10,29.82,29.73,8,2,8,0.06
2013-6-14,80,64,54,54,15,-7,78,21,10,29.79,29.68,16,3,16,0.27
2013-6-15,81,68,53,51,29,-3,83,36,10,29.96,29.79,21,4,21,0.00
2013-6-16,80,66,50,55,46,22,84,55,20,29.96,29.74,17,3,17,0.00
2013-6-17,87,70,58,65,42,-4,95,46,10,29.95,29.79,27,4,27,0.50
2013-6-18,75,63,58,54,23,-4,70,30,10,30.00,29.90,12,2,12,0.05
2013-6-19,78,66,54,51,24,-7,83,30,10,30.19,29.93,15,3,15,0.00
2013-6-20,79,65,48,55,40,14,85,49,18,30.30,30.19,11,3,11,0.00
2013-6-21,88,72,56,60,36,-3,86,38,10,30.29,30.24,19,3,19,0.00
2013-6-22,89,74,58,60,48,-2,83,46,10,30.27,30.16,19,4,19,0.00
2013-6-23,94,77,64,67,52,0,80,50,10,30.21,30.03,20,3,20,0.02
2013-6-24,97,81,68,69,56,32,97,50,22,30.06,29.90,30,5,30,0.57
2013-6-25,95,80,68,70,39,2,96,36,10,29.96,29.76,23,5,23,0.09
2013-6-26,81,71,48,65,18,-4,70,18,10,29.93,29.77,11,3,11,0.09
2013-6-27,73,63,59,36,2,-4,38,7,10,29.93,29.83,11,3,11,0.26
2013-6-28,79,64,56,-3,-3,-3,10,1,10,29.84,29.52,15,4,15,0.17
2013-6-29,88,76,67,65,26,-3,77,24,12,29.76,29.55,30,5,30,0.05
2013-6-30,90,79,67,69,54,2,79,51,10,30.01,29.75,14,4,15,0.00